createdAt,value
2018-11-26T00:00:25.735Z,81.01
2018-11-26T00:01:32.888Z,81.02
2018-11-26T00:02:39.726Z,81.03
2018-11-26T00:03:46.641Z,81.03
2018-11-26T00:04:53.459Z,81.08
2018-11-26T00:06:00.210Z,81.05
2018-11-26T00:07:07.103Z,81.03
2018-11-26T00:08:13.956Z,81.06
2018-11-26T00:09:20.704Z,81.04
2018-11-26T00:10:27.464Z,81.02
2018-11-26T00:11:34.481Z,81.03
2018-11-26T00:12:41.141Z,81.03
2018-11-26T00:13:47.900Z,81.03
2018-11-26T00:14:54.659Z,81.04
2018-11-26T00:16:01.468Z,81.04
2018-11-26T00:17:08.134Z,81.04
2018-11-26T00:18:21.068Z,81.02
2018-11-26T00:19:21.846Z,81.02
2018-11-26T00:20:28.746Z,81.02
2018-11-26T00:21:35.535Z,81.02
2018-11-26T00:22:42.335Z,81.01
2018-11-26T00:23:49.161Z,81.01
2018-11-26T00:24:55.956Z,81.00
2018-11-26T00:26:02.744Z,80.99
2018-11-26T00:27:09.442Z,81.01
2018-11-26T00:28:16.202Z,81.01
2018-11-26T00:29:22.973Z,81.03
2018-11-26T00:30:29.758Z,81.06
2018-11-26T00:31:36.630Z,81.01
2018-11-26T00:32:43.401Z,81.00
2018-11-26T00:33:50.160Z,81.03
2018-11-26T00:34:57.037Z,81.01
2018-11-26T00:36:03.830Z,81.01
2018-11-26T00:37:10.670Z,81.02
2018-11-26T00:38:17.445Z,81.04
2018-11-26T00:39:24.210Z,81.04
2018-11-26T00:40:30.999Z,81.05
2018-11-26T00:41:37.867Z,81.08
2018-11-26T00:42:44.640Z,81.07
2018-11-26T00:43:51.405Z,81.08
2018-11-26T00:44:58.245Z,81.10
2018-11-26T00:46:05.018Z,81.14
2018-11-26T00:47:11.827Z,81.15
2018-11-26T00:48:18.637Z,81.16
2018-11-26T00:49:25.438Z,81.19
2018-11-26T00:50:32.230Z,81.16
2018-11-26T00:51:39.090Z,81.17
2018-11-26T00:52:45.862Z,81.17
2018-11-26T00:53:52.622Z,81.16
2018-11-26T00:54:59.437Z,81.20
2018-11-26T00:56:06.192Z,81.18
2018-11-26T00:57:12.979Z,81.19
2018-11-26T00:58:19.842Z,81.20
2018-11-26T00:59:26.650Z,81.21
2018-11-26T01:00:33.438Z,81.19
2018-11-26T01:01:40.267Z,81.17
2018-11-26T01:02:47.054Z,81.21
2018-11-26T01:03:53.834Z,81.20
2018-11-26T01:05:00.646Z,81.21
2018-11-26T01:06:07.626Z,81.20
2018-11-26T01:07:14.439Z,81.19
2018-11-26T01:08:21.206Z,81.17
2018-11-26T01:09:27.962Z,81.18
2018-11-26T01:10:34.818Z,81.20
2018-11-26T01:11:41.658Z,81.20
2018-11-26T01:12:48.421Z,81.24
2018-11-26T01:13:55.222Z,81.25
2018-11-26T01:15:02.024Z,81.24
2018-11-26T01:16:09.010Z,81.22
2018-11-26T01:17:15.792Z,81.23
2018-11-26T01:18:22.569Z,81.25
2018-11-26T01:19:29.382Z,81.25
2018-11-26T01:20:36.145Z,81.26
2018-11-26T01:21:42.929Z,81.24
2018-11-26T01:22:49.775Z,81.22
2018-11-26T01:23:56.574Z,81.23
2018-11-26T01:25:03.318Z,81.21
2018-11-26T01:26:10.146Z,81.23
2018-11-26T01:27:16.914Z,81.24
2018-11-26T01:28:23.703Z,81.21
2018-11-26T01:29:30.534Z,81.22
2018-11-26T01:30:37.294Z,81.22
2018-11-26T01:31:44.063Z,81.22
2018-11-26T01:32:50.823Z,81.19
2018-11-26T01:33:57.560Z,81.20
2018-11-26T01:35:04.343Z,81.18
2018-11-26T01:36:11.206Z,81.21
2018-11-26T01:37:17.959Z,81.19
2018-11-26T01:38:24.719Z,81.18
2018-11-26T01:39:31.514Z,81.18
2018-11-26T01:40:38.346Z,81.19
2018-11-26T01:41:45.186Z,81.21
2018-11-26T01:42:51.968Z,81.18
2018-11-26T01:43:58.743Z,81.17
2018-11-26T01:45:05.567Z,81.21
2018-11-26T01:46:12.607Z,81.17
2018-11-26T01:47:19.370Z,81.17
2018-11-26T01:48:26.131Z,81.15
2018-11-26T01:49:32.898Z,81.14
2018-11-26T01:50:39.647Z,81.15
2018-11-26T01:51:46.422Z,81.10
2018-11-26T01:52:53.295Z,81.10
2018-11-26T01:54:00.048Z,81.10
2018-11-26T01:55:06.821Z,81.13
2018-11-26T01:56:13.538Z,81.09
2018-11-26T01:57:20.332Z,81.09
2018-11-26T01:58:27.124Z,81.08
2018-11-26T01:59:33.894Z,81.07
2018-11-26T02:00:40.710Z,81.04
2018-11-26T02:01:47.479Z,81.04
2018-11-26T02:02:54.247Z,81.04
2018-11-26T02:04:01.091Z,81.01
2018-11-26T02:05:07.934Z,81.04
2018-11-26T02:06:14.852Z,81.04
2018-11-26T02:07:21.622Z,81.03
2018-11-26T02:08:28.409Z,81.02
2018-11-26T02:09:35.233Z,81.02
2018-11-26T02:10:41.997Z,80.99
2018-11-26T02:11:48.813Z,80.98
2018-11-26T02:12:55.642Z,80.97
2018-11-26T02:14:02.382Z,80.97
2018-11-26T02:15:09.223Z,80.95
2018-11-26T02:16:16.187Z,80.97
2018-11-26T02:17:22.935Z,80.94
2018-11-26T02:18:29.795Z,80.94
2018-11-26T02:19:36.551Z,80.93
2018-11-26T02:20:43.283Z,80.94
2018-11-26T02:21:50.052Z,80.96
2018-11-26T02:22:56.975Z,80.94
2018-11-26T02:24:03.778Z,80.94
2018-11-26T02:25:10.604Z,80.94
2018-11-26T02:26:17.377Z,80.93
2018-11-26T02:27:24.158Z,80.91
2018-11-26T02:28:31.018Z,80.88
2018-11-26T02:29:37.794Z,80.88
2018-11-26T02:30:44.596Z,80.91
2018-11-26T02:31:51.418Z,80.90
2018-11-26T02:32:58.349Z,80.90
2018-11-26T02:34:05.200Z,80.88
2018-11-26T02:35:11.954Z,80.87
2018-11-26T02:36:18.759Z,80.83
2018-11-26T02:37:25.587Z,80.85
2018-11-26T02:38:32.359Z,80.84
2018-11-26T02:39:39.334Z,80.82
2018-11-26T02:40:46.132Z,80.79
2018-11-26T02:41:52.902Z,80.78
2018-11-26T02:42:59.743Z,80.76
2018-11-26T02:44:06.438Z,80.73
2018-11-26T02:45:13.203Z,80.73
2018-11-26T02:46:20.017Z,80.72
2018-11-26T02:47:26.815Z,80.73
2018-11-26T02:48:33.583Z,80.72
2018-11-26T02:49:40.334Z,80.70
2018-11-26T02:50:47.148Z,80.71
2018-11-26T02:51:53.934Z,80.68
2018-11-26T02:53:00.721Z,80.68
2018-11-26T02:54:07.546Z,80.66
2018-11-26T02:55:14.340Z,80.63
2018-11-26T02:56:21.318Z,80.64
2018-11-26T02:57:28.155Z,80.65
2018-11-26T02:58:34.955Z,80.63
2018-11-26T02:59:41.715Z,80.63
2018-11-26T03:00:48.486Z,80.61
2018-11-26T03:01:55.246Z,80.58
2018-11-26T03:03:02.130Z,80.56
2018-11-26T03:04:09.256Z,80.52
2018-11-26T03:05:16.122Z,80.55
2018-11-26T03:06:22.923Z,80.52
2018-11-26T03:07:29.651Z,80.55
2018-11-26T03:08:36.478Z,80.54
2018-11-26T03:09:43.283Z,80.56
2018-11-26T03:10:50.091Z,80.54
2018-11-26T03:11:56.926Z,80.54
2018-11-26T03:13:03.904Z,80.52
2018-11-26T03:14:10.675Z,80.50
2018-11-26T03:15:17.442Z,80.48
2018-11-26T03:16:24.206Z,80.48
2018-11-26T03:17:31.006Z,80.46
2018-11-26T03:18:37.792Z,80.45
2018-11-26T03:19:44.620Z,80.44
2018-11-26T03:20:51.486Z,80.45
2018-11-26T03:21:58.362Z,80.44
2018-11-26T03:23:05.130Z,80.43
2018-11-26T03:24:12.171Z,80.42
2018-11-26T03:25:18.990Z,80.37
2018-11-26T03:26:25.766Z,80.36
2018-11-26T03:27:32.585Z,80.34
2018-11-26T03:28:39.355Z,80.30
2018-11-26T03:29:46.091Z,80.28
2018-11-26T03:30:52.829Z,80.27
2018-11-26T03:31:59.594Z,80.26
2018-11-26T03:33:06.382Z,80.23
2018-11-26T03:34:13.114Z,80.22
2018-11-26T03:35:19.865Z,80.17
2018-11-26T03:36:26.650Z,80.09
2018-11-26T03:37:33.433Z,80.09
2018-11-26T03:38:40.229Z,80.09
2018-11-26T03:39:47.218Z,80.07
2018-11-26T03:40:53.958Z,80.03
2018-11-26T03:42:00.778Z,79.98
2018-11-26T03:43:07.585Z,79.97
2018-11-26T03:44:14.362Z,79.92
2018-11-26T03:45:21.167Z,79.89
2018-11-26T03:46:28.080Z,79.83
2018-11-26T03:47:34.814Z,79.81
2018-11-26T03:48:41.606Z,79.80
2018-11-26T03:49:48.366Z,79.74
2018-11-26T03:50:55.099Z,79.67
2018-11-26T03:52:01.852Z,79.61
2018-11-26T03:53:08.822Z,79.61
2018-11-26T03:54:15.564Z,79.57
2018-11-26T03:55:22.329Z,79.56
2018-11-26T03:56:29.095Z,79.57
2018-11-26T03:57:35.829Z,79.58
2018-11-26T03:58:42.755Z,79.52
2018-11-26T03:59:49.520Z,79.48
2018-11-26T04:00:56.291Z,79.46
2018-11-26T04:02:03.114Z,79.43
2018-11-26T04:03:09.862Z,79.40
2018-11-26T04:04:16.727Z,79.36
2018-11-26T04:05:23.526Z,79.36
2018-11-26T04:06:30.289Z,79.35
2018-11-26T04:07:37.050Z,79.36
2018-11-26T04:08:44.046Z,79.36
2018-11-26T04:09:50.830Z,79.35
2018-11-26T04:10:57.671Z,79.33
2018-11-26T04:12:04.414Z,79.33
2018-11-26T04:13:11.180Z,79.28
2018-11-26T04:14:17.974Z,79.26
2018-11-26T04:15:24.709Z,79.20
2018-11-26T04:16:31.446Z,79.15
2018-11-26T04:17:38.213Z,79.12
2018-11-26T04:18:45.122Z,79.09
2018-11-26T04:19:51.895Z,79.08
2018-11-26T04:20:58.643Z,79.04
2018-11-26T04:22:05.479Z,79.02
2018-11-26T04:23:12.270Z,79.01
2018-11-26T04:24:19.050Z,78.97
2018-11-26T04:25:25.851Z,78.97
2018-11-26T04:26:32.615Z,78.94
2018-11-26T04:27:39.358Z,78.91
2018-11-26T04:28:46.130Z,78.90
2018-11-26T04:29:52.883Z,78.89
2018-11-26T04:30:59.654Z,78.89
2018-11-26T04:32:06.422Z,78.84
2018-11-26T04:33:13.236Z,78.80
2018-11-26T04:34:20.006Z,78.83
2018-11-26T04:35:26.810Z,78.82
2018-11-26T04:36:33.630Z,78.79
2018-11-26T04:37:40.418Z,78.75
2018-11-26T04:38:47.221Z,78.74
2018-11-26T04:39:53.986Z,78.74
2018-11-26T04:41:00.747Z,78.70
2018-11-26T04:42:07.545Z,78.69
2018-11-26T04:43:14.361Z,78.69
2018-11-26T04:44:21.142Z,78.69
2018-11-26T04:45:27.902Z,78.71
2018-11-26T04:46:34.746Z,78.74
2018-11-26T04:47:41.522Z,78.73
2018-11-26T04:48:48.307Z,78.71
2018-11-26T04:49:55.165Z,78.69
2018-11-26T04:51:01.945Z,78.70
2018-11-26T04:52:08.934Z,78.67
2018-11-26T04:53:15.699Z,78.65
2018-11-26T04:54:22.550Z,78.63
2018-11-26T04:55:29.360Z,78.64
2018-11-26T04:56:36.180Z,78.66
2018-11-26T04:57:43.055Z,78.67
2018-11-26T04:58:49.761Z,78.65
2018-11-26T04:59:56.566Z,78.64
2018-11-26T05:01:03.322Z,78.63
2018-11-26T05:02:10.155Z,78.62
2018-11-26T05:03:16.925Z,78.59
2018-11-26T05:04:23.706Z,78.61
2018-11-26T05:05:30.573Z,78.60
2018-11-26T05:06:37.375Z,78.56
2018-11-26T05:07:44.166Z,78.54
2018-11-26T05:08:51.007Z,78.57
2018-11-26T05:09:57.751Z,78.51
2018-11-26T05:11:04.530Z,78.57
2018-11-26T05:12:11.394Z,78.54
2018-11-26T05:13:18.154Z,78.53
2018-11-26T05:14:24.926Z,78.59
2018-11-26T05:15:31.784Z,78.59
2018-11-26T05:16:38.563Z,78.57
2018-11-26T05:17:45.379Z,78.58
2018-11-26T05:18:52.195Z,78.54
2018-11-26T05:19:58.972Z,78.52
2018-11-26T05:21:05.786Z,78.53
2018-11-26T05:22:12.578Z,78.50
2018-11-26T05:23:19.347Z,78.47
2018-11-26T05:24:26.111Z,78.42
2018-11-26T05:25:32.885Z,78.40
2018-11-26T05:26:39.614Z,78.37
2018-11-26T05:27:46.364Z,78.37
2018-11-26T05:28:53.142Z,78.36
2018-11-26T05:29:59.889Z,78.37
2018-11-26T05:31:07.578Z,78.36
2018-11-26T05:32:13.514Z,78.36
2018-11-26T05:33:20.264Z,78.34
2018-11-26T05:34:27.042Z,78.33
2018-11-26T05:35:33.813Z,78.33
2018-11-26T05:36:40.587Z,78.29
2018-11-26T05:37:47.435Z,78.29
2018-11-26T05:38:54.210Z,78.27
2018-11-26T05:40:00.979Z,78.21
2018-11-26T05:41:07.970Z,78.19
2018-11-26T05:42:14.729Z,78.13
2018-11-26T05:43:21.462Z,78.14
2018-11-26T05:44:28.254Z,78.11
2018-11-26T05:45:35.010Z,78.13
2018-11-26T05:46:41.886Z,78.15
2018-11-26T05:47:48.642Z,78.14
2018-11-26T05:48:55.398Z,78.10
2018-11-26T05:50:02.171Z,78.08
2018-11-26T05:51:08.820Z,78.05
2018-11-26T05:52:15.647Z,78.06
2018-11-26T05:53:22.442Z,78.04
2018-11-26T05:54:29.229Z,78.05
2018-11-26T05:55:36.060Z,78.01
2018-11-26T05:56:42.830Z,78.05
2018-11-26T05:57:49.657Z,78.01
2018-11-26T05:58:56.441Z,77.98
2018-11-26T06:00:03.184Z,77.98
2018-11-26T06:01:09.889Z,77.92
2018-11-26T06:02:16.664Z,77.95
2018-11-26T06:03:23.505Z,77.86
2018-11-26T06:04:30.294Z,77.80
2018-11-26T06:05:37.047Z,77.79
2018-11-26T06:06:43.792Z,77.74
2018-11-26T06:07:50.564Z,77.72
2018-11-26T06:08:57.389Z,77.71
2018-11-26T06:10:04.162Z,77.66
2018-11-26T06:11:10.823Z,77.58
2018-11-26T06:12:17.570Z,77.55
2018-11-26T06:13:24.361Z,77.55
2018-11-26T06:14:31.129Z,77.54
2018-11-26T06:15:37.995Z,77.56
2018-11-26T06:16:45.796Z,77.53
2018-11-26T06:17:51.531Z,77.53
2018-11-26T06:18:58.370Z,77.52
2018-11-26T06:20:05.154Z,77.50
2018-11-26T06:21:12.291Z,77.50
2018-11-26T06:22:19.075Z,77.46
2018-11-26T06:23:25.930Z,77.42
2018-11-26T06:24:32.715Z,77.45
2018-11-26T06:25:39.479Z,77.44
2018-11-26T06:26:46.309Z,77.40
2018-11-26T06:27:53.102Z,77.36
2018-11-26T06:28:59.870Z,77.36
2018-11-26T06:30:06.702Z,77.39
2018-11-26T06:31:13.805Z,77.39
2018-11-26T06:32:20.581Z,77.39
2018-11-26T06:33:27.361Z,77.38
2018-11-26T06:34:34.221Z,77.38
2018-11-26T06:35:40.988Z,77.35
2018-11-26T06:36:47.773Z,77.36
2018-11-26T06:37:54.583Z,77.34
2018-11-26T06:39:01.363Z,77.33
2018-11-26T06:40:08.058Z,77.31
2018-11-26T06:41:15.053Z,77.31
2018-11-26T06:42:21.837Z,77.31
2018-11-26T06:43:28.953Z,77.31
2018-11-26T06:44:35.467Z,77.34
2018-11-26T06:45:42.212Z,77.33
2018-11-26T06:46:48.933Z,77.35
2018-11-26T06:47:55.768Z,77.34
2018-11-26T06:49:02.495Z,77.31
2018-11-26T06:50:09.413Z,77.24
2018-11-26T06:51:16.218Z,77.22
2018-11-26T06:52:23.025Z,77.21
2018-11-26T06:53:29.776Z,77.20
2018-11-26T06:54:36.588Z,77.22
2018-11-26T06:55:43.369Z,77.19
2018-11-26T06:56:50.116Z,77.16
2018-11-26T06:57:56.965Z,77.13
2018-11-26T06:59:03.734Z,77.10
2018-11-26T07:00:10.497Z,77.12
2018-11-26T07:01:17.366Z,77.07
2018-11-26T07:02:24.118Z,77.07
2018-11-26T07:03:30.895Z,77.08
2018-11-26T07:04:37.784Z,77.06
2018-11-26T07:05:44.534Z,77.05
2018-11-26T07:06:51.295Z,77.05
2018-11-26T07:07:58.171Z,77.04
2018-11-26T07:09:04.949Z,77.01
2018-11-26T07:10:11.974Z,77.01
2018-11-26T07:11:18.779Z,77.01
2018-11-26T07:12:25.504Z,76.97
2018-11-26T07:13:32.300Z,76.94
2018-11-26T07:14:39.070Z,76.91
2018-11-26T07:15:45.829Z,76.91
2018-11-26T07:16:52.665Z,76.92
2018-11-26T07:17:59.401Z,76.93
2018-11-26T07:19:06.183Z,76.95
2018-11-26T07:20:13.197Z,76.89
2018-11-26T07:21:20.443Z,76.82
2018-11-26T07:22:26.786Z,76.83
2018-11-26T07:23:33.539Z,76.84
2018-11-26T07:24:40.334Z,76.80
2018-11-26T07:25:47.181Z,76.81
2018-11-26T07:26:53.961Z,76.81
2018-11-26T07:28:00.751Z,76.81
2018-11-26T07:29:07.766Z,76.77
2018-11-26T07:30:14.550Z,76.75
2018-11-26T07:31:21.554Z,76.77
2018-11-26T07:32:28.319Z,76.83
2018-11-26T07:33:35.090Z,76.84
2018-11-26T07:34:41.858Z,76.84
2018-11-26T07:35:48.614Z,76.81
2018-11-26T07:36:55.434Z,76.84
2018-11-26T07:38:02.173Z,76.85
2018-11-26T07:39:09.194Z,76.84
2018-11-26T07:40:15.979Z,76.84
2018-11-26T07:41:22.950Z,76.84
2018-11-26T07:42:29.678Z,76.81
2018-11-26T07:43:36.455Z,76.81
2018-11-26T07:44:43.195Z,76.78
2018-11-26T07:45:49.978Z,76.75
2018-11-26T07:46:56.754Z,76.73
2018-11-26T07:48:03.519Z,76.72
2018-11-26T07:49:10.342Z,76.74
2018-11-26T07:50:17.114Z,76.77
2018-11-26T07:51:24.126Z,76.78
2018-11-26T07:52:30.910Z,76.83
2018-11-26T07:53:37.674Z,76.78
2018-11-26T07:54:44.494Z,76.73
2018-11-26T07:55:51.303Z,76.73
2018-11-26T07:56:58.044Z,76.73
2018-11-26T07:58:04.879Z,76.76
2018-11-26T07:59:11.654Z,76.74
2018-11-26T08:00:18.429Z,76.72
2018-11-26T08:01:25.493Z,76.69
2018-11-26T08:02:32.266Z,76.71
2018-11-26T08:03:39.063Z,76.75
2018-11-26T08:04:45.809Z,76.79
2018-11-26T08:05:52.584Z,76.87
2018-11-26T08:06:59.306Z,76.90
2018-11-26T08:08:06.105Z,76.91
2018-11-26T08:09:12.868Z,76.89
2018-11-26T08:10:19.642Z,76.87
2018-11-26T08:11:26.666Z,76.88
2018-11-26T08:12:33.443Z,76.88
2018-11-26T08:13:40.198Z,76.86
2018-11-26T08:14:46.965Z,76.85
2018-11-26T08:15:53.746Z,76.87
2018-11-26T08:17:00.510Z,76.87
2018-11-26T08:18:07.402Z,76.88
2018-11-26T08:19:14.188Z,76.82
2018-11-26T08:20:20.962Z,76.86
2018-11-26T08:21:27.818Z,76.85
2018-11-26T08:22:34.628Z,76.84
2018-11-26T08:23:41.410Z,76.79
2018-11-26T08:24:48.239Z,76.79
2018-11-26T08:25:55.009Z,76.82
2018-11-26T08:27:01.775Z,76.83
2018-11-26T08:28:08.664Z,76.92
2018-11-26T08:29:15.450Z,76.89
2018-11-26T08:30:22.221Z,76.90
2018-11-26T08:31:29.094Z,76.88
2018-11-26T08:32:35.871Z,76.85
2018-11-26T08:33:43.030Z,76.87
2018-11-26T08:34:49.793Z,76.89
2018-11-26T08:35:56.658Z,76.87
2018-11-26T08:37:03.789Z,76.90
2018-11-26T08:38:10.598Z,76.90
2018-11-26T08:39:17.435Z,76.92
2018-11-26T08:40:24.215Z,76.95
2018-11-26T08:41:30.984Z,76.99
2018-11-26T08:42:37.950Z,76.99
2018-11-26T08:43:44.709Z,76.95
2018-11-26T08:44:51.540Z,77.00
2018-11-26T08:45:58.461Z,76.99
2018-11-26T08:47:05.270Z,76.99
2018-11-26T08:48:12.403Z,77.02
2018-11-26T08:49:19.203Z,77.04
2018-11-26T08:50:25.910Z,77.08
2018-11-26T08:51:32.715Z,77.12
2018-11-26T08:52:39.450Z,77.14
2018-11-26T08:53:46.222Z,77.16
2018-11-26T08:54:52.971Z,77.13
2018-11-26T08:55:59.765Z,77.13
2018-11-26T08:57:06.636Z,77.15
2018-11-26T08:58:13.403Z,77.17
2018-11-26T08:59:20.165Z,77.23
2018-11-26T09:00:26.948Z,77.18
2018-11-26T09:01:33.685Z,77.22
2018-11-26T09:02:40.542Z,77.31
2018-11-26T09:03:47.264Z,77.34
2018-11-26T09:04:54.082Z,77.24
2018-11-26T09:06:06.086Z,77.25
2018-11-26T09:07:12.858Z,77.25
2018-11-26T09:08:19.664Z,77.27
2018-11-26T09:09:26.745Z,77.26
2018-11-26T09:10:33.466Z,77.28
2018-11-26T09:11:40.395Z,77.30
2018-11-26T09:12:47.211Z,77.36
2018-11-26T09:13:54.003Z,77.42
2018-11-26T09:15:02.829Z,77.45
2018-11-26T09:16:07.683Z,77.47
2018-11-26T09:17:14.421Z,77.48
2018-11-26T09:18:21.203Z,77.47
2018-11-26T09:19:28.047Z,77.50
2018-11-26T09:20:34.806Z,77.53
2018-11-26T09:21:41.641Z,77.50
2018-11-26T09:22:48.502Z,77.51
2018-11-26T09:23:55.311Z,77.58
2018-11-26T09:25:02.111Z,77.63
2018-11-26T09:26:12.735Z,77.65
2018-11-26T09:27:16.015Z,77.67
2018-11-26T09:28:23.006Z,77.63
2018-11-26T09:29:29.839Z,77.63
2018-11-26T09:30:36.727Z,77.66
2018-11-26T09:31:43.526Z,77.67
2018-11-26T09:32:50.390Z,77.75
2018-11-26T09:33:57.179Z,77.78
2018-11-26T09:35:03.929Z,77.74
2018-11-26T09:36:11.050Z,77.77
2018-11-26T09:37:17.932Z,77.82
2018-11-26T09:38:24.859Z,77.80
2018-11-26T09:39:31.703Z,77.82
2018-11-26T09:40:38.381Z,77.86
2018-11-26T09:41:45.151Z,77.84
2018-11-26T09:42:51.927Z,77.80
2018-11-26T09:43:58.726Z,77.77
2018-11-26T09:45:05.474Z,77.75
2018-11-26T09:46:12.386Z,77.71
2018-11-26T09:47:19.142Z,77.73
2018-11-26T09:48:25.921Z,77.70
2018-11-26T09:49:32.680Z,77.73
2018-11-26T09:50:39.514Z,77.70
2018-11-26T09:51:46.301Z,77.68
2018-11-26T09:52:53.042Z,77.68
2018-11-26T09:53:59.887Z,77.71
2018-11-26T09:55:06.649Z,77.70
2018-11-26T09:56:13.770Z,77.71
2018-11-26T09:57:20.548Z,77.70
2018-11-26T09:58:27.389Z,77.68
2018-11-26T09:59:34.154Z,77.68
2018-11-26T10:00:40.898Z,77.70
2018-11-26T10:01:47.734Z,77.67
2018-11-26T10:04:01.706Z,77.73
2018-11-26T10:05:08.401Z,77.76
2018-11-26T10:06:15.216Z,77.71
2018-11-26T10:07:22.249Z,77.67
2018-11-26T10:08:28.785Z,77.67
2018-11-26T10:09:35.550Z,77.68
2018-11-26T10:10:42.296Z,77.69
2018-11-26T10:11:49.108Z,77.65
2018-11-26T10:12:55.987Z,77.59
2018-11-26T10:14:02.788Z,77.57
2018-11-26T10:15:09.920Z,77.55
2018-11-26T10:16:16.708Z,77.53
2018-11-26T10:17:23.618Z,77.52
2018-11-26T10:18:30.411Z,77.60
2018-11-26T10:19:37.332Z,77.67
2018-11-26T10:20:44.203Z,77.62
2018-11-26T10:21:51.041Z,77.58
2018-11-26T10:22:58.166Z,77.55
2018-11-26T10:24:05.018Z,77.46
2018-11-26T10:25:11.923Z,77.40
2018-11-26T10:26:18.842Z,77.42
2018-11-26T10:27:25.685Z,77.43
2018-11-26T10:28:32.510Z,77.44
2018-11-26T10:29:39.291Z,77.41
2018-11-26T10:30:46.047Z,77.37
2018-11-26T10:31:52.878Z,77.36
2018-11-26T10:32:59.663Z,77.35
2018-11-26T10:34:06.461Z,77.33
2018-11-26T10:35:13.254Z,77.29
2018-11-26T10:36:20.246Z,77.23
2018-11-26T10:37:27.040Z,77.26
2018-11-26T10:38:33.826Z,77.18
2018-11-26T10:39:40.595Z,77.21
2018-11-26T10:40:47.372Z,77.17
2018-11-26T10:41:54.225Z,77.11
2018-11-26T10:43:01.077Z,77.09
2018-11-26T10:44:08.139Z,77.04
2018-11-26T10:45:14.906Z,76.98
2018-11-26T10:46:21.714Z,76.92
2018-11-26T10:47:28.555Z,76.90
2018-11-26T10:48:35.411Z,76.86
2018-11-26T10:49:42.171Z,76.82
2018-11-26T10:50:48.945Z,76.75
2018-11-26T10:51:55.775Z,76.76
2018-11-26T10:53:02.577Z,76.68
2018-11-26T10:54:09.638Z,76.62
2018-11-26T10:55:16.479Z,76.60
2018-11-26T10:56:23.270Z,76.55
2018-11-26T10:57:30.095Z,76.46
2018-11-26T10:58:36.870Z,76.44
2018-11-26T10:59:43.647Z,76.44
2018-11-26T11:00:50.434Z,76.42
2018-11-26T11:01:57.601Z,76.35
2018-11-26T11:03:04.419Z,76.36
2018-11-26T11:04:11.267Z,76.34
2018-11-26T11:05:18.162Z,76.33
2018-11-26T11:06:24.932Z,76.28
2018-11-26T11:07:31.740Z,76.27
2018-11-26T11:08:38.561Z,76.28
2018-11-26T11:09:45.352Z,76.31
2018-11-26T11:10:52.122Z,76.33
2018-11-26T11:11:58.968Z,76.26
2018-11-26T11:13:05.780Z,76.27
2018-11-26T11:14:12.588Z,76.31
2018-11-26T11:15:19.383Z,76.31
2018-11-26T11:16:26.291Z,76.31
2018-11-26T11:17:33.237Z,76.21
2018-11-26T11:18:40.034Z,76.19
2018-11-26T11:19:46.945Z,76.22
2018-11-26T11:20:53.796Z,76.18
2018-11-26T11:22:00.693Z,76.16
2018-11-26T11:23:07.553Z,76.21
2018-11-26T11:24:14.504Z,76.17
2018-11-26T11:25:21.357Z,76.10
2018-11-26T11:26:28.292Z,76.11
2018-11-26T11:27:35.002Z,76.03
2018-11-26T11:28:41.835Z,76.04
2018-11-26T11:29:48.641Z,76.09
2018-11-26T11:30:55.404Z,76.02
2018-11-26T11:32:02.220Z,76.01
2018-11-26T11:34:15.906Z,76.04
2018-11-26T11:35:22.699Z,76.08
2018-11-26T11:36:29.475Z,76.04
2018-11-26T11:37:36.277Z,75.95
2018-11-26T11:38:44.040Z,75.95
2018-11-26T11:39:50.095Z,75.95
2018-11-26T11:40:56.874Z,75.87
2018-11-26T11:42:03.672Z,75.88
2018-11-26T11:43:10.510Z,75.96
2018-11-26T11:44:17.299Z,75.96
2018-11-26T11:45:24.323Z,75.89
2018-11-26T11:46:31.344Z,75.87
2018-11-26T11:47:38.142Z,75.85
2018-11-26T11:48:45.036Z,75.86
2018-11-26T11:49:51.798Z,75.74
2018-11-26T11:50:58.595Z,75.73
2018-11-26T11:52:05.371Z,75.77
2018-11-26T11:53:12.200Z,75.71
2018-11-26T11:54:18.975Z,75.63
2018-11-26T11:55:25.767Z,75.60
2018-11-26T11:56:32.544Z,75.57
2018-11-26T11:57:39.373Z,75.59
2018-11-26T11:58:46.183Z,75.57
2018-11-26T11:59:53.008Z,75.52
2018-11-26T12:00:59.932Z,75.46
2018-11-26T12:02:06.946Z,75.45
2018-11-26T12:03:14.150Z,75.43
2018-11-26T12:04:20.811Z,75.36
2018-11-26T12:05:27.609Z,75.31
2018-11-26T12:06:34.399Z,75.17
2018-11-26T12:07:41.193Z,75.11
2018-11-26T12:08:47.981Z,75.07
2018-11-26T12:09:54.799Z,75.10
2018-11-26T12:11:01.565Z,75.07
2018-11-26T12:12:08.675Z,75.05
2018-11-26T12:13:15.516Z,75.01
2018-11-26T12:14:22.309Z,74.94
2018-11-26T12:15:29.151Z,74.81
2018-11-26T12:16:36.039Z,74.74
2018-11-26T12:17:43.124Z,74.66
2018-11-26T12:18:50.065Z,74.63
2018-11-26T12:19:56.929Z,74.52
2018-11-26T12:21:03.884Z,74.47
2018-11-26T12:22:10.696Z,74.41
2018-11-26T12:23:17.592Z,74.39
2018-11-26T12:24:24.462Z,74.37
2018-11-26T12:25:31.343Z,74.35
2018-11-26T12:26:38.229Z,74.29
2018-11-26T12:27:45.139Z,74.31
2018-11-26T12:28:51.952Z,74.32
2018-11-26T12:29:58.690Z,74.34
2018-11-26T12:31:05.543Z,74.23
2018-11-26T12:32:12.318Z,74.11
2018-11-26T12:33:19.108Z,74.07
2018-11-26T12:34:25.929Z,74.07
2018-11-26T12:35:32.715Z,74.06
2018-11-26T12:36:39.487Z,74.04
2018-11-26T12:37:46.338Z,74.11
2018-11-26T12:38:53.165Z,74.16
2018-11-26T12:39:59.931Z,74.14
2018-11-26T12:41:06.789Z,74.05
2018-11-26T12:42:13.548Z,74.01
2018-11-26T12:43:20.307Z,73.88
2018-11-26T12:44:27.130Z,73.79
2018-11-26T12:45:33.859Z,73.84
2018-11-26T12:46:40.764Z,73.83
2018-11-26T12:47:47.584Z,73.93
2018-11-26T12:48:54.399Z,73.87
2018-11-26T12:50:01.151Z,73.82
2018-11-26T12:51:07.936Z,73.76
2018-11-26T12:52:14.691Z,73.78
2018-11-26T12:53:21.476Z,73.74
2018-11-26T12:54:28.200Z,73.72
2018-11-26T12:55:35.007Z,73.68
2018-11-26T12:56:41.997Z,73.69
2018-11-26T12:57:48.779Z,73.70
2018-11-26T12:58:55.699Z,73.59
2018-11-26T13:00:02.519Z,73.60
2018-11-26T13:01:09.711Z,73.54
2018-11-26T13:02:16.516Z,73.53
2018-11-26T13:03:23.375Z,73.45
2018-11-26T13:04:30.166Z,73.53
2018-11-26T13:05:36.913Z,73.46
2018-11-26T13:06:44.797Z,73.46
2018-11-26T13:07:50.596Z,73.41
2018-11-26T13:08:57.468Z,73.37
2018-11-26T13:10:04.219Z,73.32
2018-11-26T13:11:11.046Z,73.35
2018-11-26T13:12:17.791Z,73.31
2018-11-26T13:13:24.650Z,73.22
2018-11-26T13:14:31.444Z,73.22
2018-11-26T13:15:38.220Z,73.17
2018-11-26T13:16:45.058Z,73.09
2018-11-26T13:17:51.832Z,73.05
2018-11-26T13:18:58.654Z,73.10
2018-11-26T13:20:05.470Z,73.07
2018-11-26T13:21:12.239Z,72.99
2018-11-26T13:22:19.104Z,72.86
2018-11-26T13:23:25.897Z,72.89
2018-11-26T13:24:32.847Z,72.90
2018-11-26T13:25:41.835Z,72.87
2018-11-26T13:26:46.453Z,72.89
2018-11-26T13:27:53.348Z,72.92
2018-11-26T13:29:00.392Z,72.90
2018-11-26T13:30:07.187Z,72.82
2018-11-26T13:31:14.276Z,72.77
2018-11-26T13:32:21.012Z,72.77
2018-11-26T13:33:27.782Z,72.77
2018-11-26T13:34:34.615Z,72.80
2018-11-26T13:35:41.305Z,72.86
2018-11-26T13:36:48.048Z,72.93
2018-11-26T13:37:54.803Z,72.91
2018-11-26T13:39:01.571Z,72.84
2018-11-26T13:40:08.711Z,72.82
2018-11-26T13:41:15.620Z,72.84
2018-11-26T13:42:22.659Z,72.78
2018-11-26T13:43:31.737Z,72.70
2018-11-26T13:44:36.548Z,72.72
2018-11-26T13:45:43.324Z,72.65
2018-11-26T13:46:50.175Z,72.61
2018-11-26T13:47:56.955Z,72.58
2018-11-26T13:49:03.755Z,72.58
2018-11-26T13:50:10.573Z,72.60
2018-11-26T13:51:17.427Z,72.58
2018-11-26T13:52:24.221Z,72.59
2018-11-26T13:53:30.990Z,72.56
2018-11-26T13:54:37.746Z,72.51
2018-11-26T13:55:44.498Z,72.56
2018-11-26T13:56:51.233Z,72.58
2018-11-26T13:57:58.815Z,72.60
2018-11-26T13:59:04.841Z,72.65
2018-11-26T14:00:11.571Z,72.58
2018-11-26T14:01:18.727Z,72.53
2018-11-26T14:02:25.598Z,72.59
2018-11-26T14:03:32.371Z,72.56
2018-11-26T14:04:39.147Z,72.51
2018-11-26T14:05:45.967Z,72.53
2018-11-26T14:06:52.719Z,72.51
2018-11-26T14:07:59.463Z,72.45
2018-11-26T14:09:06.232Z,72.51
2018-11-26T14:10:13.311Z,72.51
2018-11-26T14:11:20.143Z,72.53
2018-11-26T14:12:26.879Z,72.46
2018-11-26T14:13:33.648Z,72.43
2018-11-26T14:14:40.542Z,72.43
2018-11-26T14:15:47.509Z,72.43
2018-11-26T14:16:54.604Z,72.47
2018-11-26T14:18:01.512Z,72.41
2018-11-26T14:19:08.309Z,72.36
2018-11-26T14:20:15.108Z,72.33
2018-11-26T14:21:21.845Z,72.27
2018-11-26T14:22:28.688Z,72.25